Time;durP1;ratioP1;P1;durP2;ratioP2;P2;SDS_P1;SDS_P2;PMS_P1;PMS_P2;Temp;Humidity;BMP_temperature;BMP_pressure;BME280_temperature;BME280_humidity;BME280_pressure;Samples;Min_cycle;Max_cycle;Signal;HPM_P1;HPM_P2
2023/06/29 00:03:04;;;;;;;8.10;6.50;;;;;;;20.92;91.72;101306.09;20984632;28;20044;-62
2023/06/29 00:13:06;;;;;;;8.02;6.65;;;;;;;20.92;91.59;101305.22;20933408;28;20051;-62
2023/06/29 00:23:08;;;;;;;7.78;6.20;;;;;;;20.90;91.68;101310.78;20947294;28;20052;-62
2023/06/29 00:33:10;;;;;;;7.20;5.93;;;;;;;20.90;91.66;101310.78;20944923;28;20094;-61
2023/06/29 00:43:11;;;;;;;8.45;6.95;;;;;;;20.90;91.67;101302.66;20950909;28;20123;-61
2023/06/29 00:53:13;;;;;;;8.00;6.63;;;;;;;20.82;91.61;101284.44;20943443;28;20080;-62
2023/06/29 01:03:15;;;;;;;7.82;6.85;;;;;;;20.88;91.86;101283.03;20924309;28;20123;-62
2023/06/29 01:13:17;;;;;;;8.13;7.03;;;;;;;20.86;91.97;101266.09;20952976;28;20044;-62
2023/06/29 01:23:26;;;;;;;7.38;6.63;;;;;;;20.87;91.80;101265.09;20952404;28;20123;-62
2023/06/29 01:33:27;;;;;;;8.10;6.88;;;;;;;20.87;91.86;101259.66;20942427;28;20044;-62
2023/06/29 01:43:29;;;;;;;7.43;6.53;;;;;;;20.86;91.88;101241.72;20956446;28;20458;-62
2023/06/29 01:53:34;;;;;;;7.60;6.80;;;;;;;20.87;91.80;101238.03;20994876;28;20052;-62
2023/06/29 02:03:38;;;;;;;7.65;6.70;;;;;;;20.88;91.98;101236.16;20974300;28;20414;-62
2023/06/29 02:13:41;;;;;;;8.25;6.93;;;;;;;20.86;91.95;101229.03;20994063;28;20041;-62
2023/06/29 02:23:42;;;;;;;8.50;7.32;;;;;;;20.88;92.03;101233.44;20947007;28;20060;-62
2023/06/29 02:33:44;;;;;;;10.18;6.97;;;;;;;20.88;92.03;101231.59;20973665;28;20049;-62
2023/06/29 02:43:47;;;;;;;8.18;7.38;;;;;;;20.88;91.94;101226.19;20953706;28;20079;-62
2023/06/29 02:53:49;;;;;;;8.05;6.95;;;;;;;20.88;91.92;101220.78;20977888;28;20565;-62
2023/06/29 03:03:50;;;;;;;8.15;7.10;;;;;;;20.87;91.93;101210.97;20988959;28;20052;-62
2023/06/29 03:13:55;;;;;;;8.68;7.78;;;;;;;20.87;91.97;101200.13;21021871;28;20501;-62
2023/06/29 03:23:57;;;;;;;8.63;7.43;;;;;;;20.82;92.18;101186.19;21048239;28;20051;-62
2023/06/29 03:34:00;;;;;;;7.88;6.85;;;;;;;20.87;92.17;101181.19;20949321;28;20541;-62
2023/06/29 03:44:02;;;;;;;7.75;6.95;;;;;;;20.87;92.40;101194.72;20943847;28;20079;-62
2023/06/29 03:54:03;;;;;;;8.77;7.50;;;;;;;20.87;92.39;101189.31;20944298;28;20048;-62
2023/06/29 04:04:05;;;;;;;8.15;7.03;;;;;;;20.86;92.09;101182.19;20958665;28;20143;-62
2023/06/29 04:14:07;;;;;;;8.63;7.40;;;;;;;20.85;92.26;101185.91;20965384;28;20048;-62
2023/06/29 04:24:08;;;;;;;10.02;7.53;;;;;;;20.83;92.26;101177.91;20943369;28;20150;-61
2023/06/29 04:34:10;;;;;;;9.30;8.15;;;;;;;20.83;92.56;101166.25;20943370;28;20080;-62
2023/06/29 04:44:12;;;;;;;8.48;7.38;;;;;;;20.81;92.49;101152.03;20942373;28;20060;-62
2023/06/29 04:54:13;;;;;;;9.95;8.10;;;;;;;20.83;92.65;101153.56;20935876;28;20421;-63
2023/06/29 05:04:15;;;;;;;10.68;8.65;;;;;;;20.78;92.46;101147.72;20954137;28;20057;-62
2023/06/29 05:14:17;;;;;;;14.57;9.88;;;;;;;20.83;92.63;101156.28;20963734;28;20041;-62
2023/06/29 05:24:19;;;;;;;13.45;10.10;;;;;;;20.85;93.43;101150.72;20948063;28;20045;-62
2023/06/29 05:34:22;;;;;;;13.67;8.67;;;;;;;20.85;93.97;101146.16;20976354;28;20053;-63
2023/06/29 05:44:24;;;;;;;13.90;10.07;;;;;;;20.89;94.57;101143.13;20942053;28;20116;-62
2023/06/29 05:54:26;;;;;;;16.77;11.07;;;;;;;20.95;95.73;101124.47;20946331;28;20098;-62
2023/06/29 06:04:28;;;;;;;10.77;9.32;;;;;;;21.00;95.50;101124.84;20980752;28;20123;-62
2023/06/29 06:14:29;;;;;;;13.50;9.65;;;;;;;21.03;94.99;101129.13;20977146;28;20052;-62
2023/06/29 06:24:31;;;;;;;11.82;9.65;;;;;;;21.05;95.02;101123.53;20987399;28;20049;-62
2023/06/29 06:34:33;;;;;;;12.85;9.55;;;;;;;21.04;94.54;101124.53;20992183;28;20076;-63
2023/06/29 06:44:36;;;;;;;14.02;10.20;;;;;;;21.03;94.91;101120.13;20992751;28;20095;-62
2023/06/29 06:54:37;;;;;;;12.07;9.20;;;;;;;20.99;95.06;101117.72;20992338;28;20049;-62
2023/06/29 07:04:39;;;;;;;10.70;8.98;;;;;;;21.01;95.59;101118.44;20991112;28;20135;-62
2023/06/29 07:14:41;;;;;;;10.02;8.75;;;;;;;21.02;95.33;101111.19;21019533;28;20405;-63
2023/06/29 07:24:42;;;;;;;11.50;10.15;;;;;;;21.01;95.36;101098.66;21009858;28;20091;-62
2023/06/29 07:34:44;;;;;;;11.55;10.35;;;;;;;21.03;95.26;101099.34;20979121;28;20076;-62
2023/06/29 07:44:46;;;;;;;13.35;10.70;;;;;;;21.08;95.08;101093.47;20986349;28;20425;-62
2023/06/29 07:54:47;;;;;;;14.40;11.13;;;;;;;21.13;95.00;101091.13;20986823;28;20139;-62
2023/06/29 08:04:50;;;;;;;11.55;10.35;;;;;;;21.19;94.64;101087.81;20986186;28;20048;-62
2023/06/29 08:14:55;;;;;;;11.60;10.40;;;;;;;21.19;94.38;101068.88;21037691;28;20044;-62
2023/06/29 08:24:56;;;;;;;11.80;10.18;;;;;;;21.19;94.68;101082.41;21066624;28;20130;-62
2023/06/29 08:34:58;;;;;;;14.07;10.70;;;;;;;21.18;95.36;101071.75;21067680;28;20052;-62
2023/06/29 08:45:00;;;;;;;12.60;10.70;;;;;;;21.18;95.60;101061.75;21066737;28;20122;-62
2023/06/29 08:55:02;;;;;;;14.52;11.25;;;;;;;21.18;95.39;101039.25;21067609;28;20059;-62
2023/06/29 09:05:05;;;;;;;13.32;11.45;;;;;;;21.35;95.13;101051.09;21065365;28;20536;-62
2023/06/29 09:15:10;;;;;;;11.13;9.18;;;;;;;21.40;93.87;101044.19;20988160;28;20476;-63
2023/06/29 09:25:13;;;;;;;11.07;9.57;;;;;;;21.23;94.51;101040.50;21006377;28;20071;-62
2023/06/29 09:35:34;;;;;;;11.63;10.13;;;;;;;21.15;95.48;101035.84;20980353;28;20387;-62
2023/06/29 09:45:36;;;;;;;12.05;10.27;;;;;;;21.14;95.43;101033.28;20972343;28;20045;-62
2023/06/29 09:55:38;;;;;;;13.85;9.80;;;;;;;21.13;95.16;101040.56;20966647;28;20091;-62
2023/06/29 10:05:39;;;;;;;12.85;10.77;;;;;;;21.09;95.12;101041.88;20959157;28;20138;-62
2023/06/29 10:15:41;;;;;;;12.55;10.07;;;;;;;21.04;95.05;101044.22;20970292;28;20055;-62
2023/06/29 10:25:48;;;;;;;13.48;11.48;;;;;;;21.01;95.39;101039.94;20943438;28;20498;-62
2023/06/29 10:35:58;;;;;;;11.65;10.15;;;;;;;21.00;95.27;101046.34;20905681;28;20385;-62
2023/06/29 10:46:00;;;;;;;11.93;9.93;;;;;;;20.99;95.19;101036.53;20914822;28;20048;-62
2023/06/29 10:56:01;;;;;;;12.23;10.88;;;;;;;21.01;95.50;101034.53;20903007;28;20102;-62
2023/06/29 11:06:03;;;;;;;11.80;10.30;;;;;;;21.00;95.24;101019.28;20910887;28;20053;-62
2023/06/29 11:16:05;;;;;;;12.73;9.57;;;;;;;21.10;95.12;101021.06;20920432;28;20516;-62
2023/06/29 11:26:08;;;;;;;12.45;9.88;;;;;;;21.14;95.31;101008.91;20946801;28;20048;-63
2023/06/29 11:36:09;;;;;;;12.60;10.02;;;;;;;21.19;95.18;101003.88;20914286;28;20487;-62
2023/06/29 11:46:11;;;;;;;12.38;9.50;;;;;;;21.25;94.95;100997.88;20916622;28;20102;-62
2023/06/29 11:56:36;;;;;;;10.65;9.50;;;;;;;21.33;94.84;100998.94;20905322;28;20049;-62
2023/06/29 12:06:48;;;;;;;;;;;;;;;21.39;94.99;100987.47;20885479;28;20128;-63
2023/06/29 12:16:51;;;;;;;12.27;10.27;;;;;;;21.43;95.73;100975.31;20953175;28;19964;-62
2023/06/29 12:26:55;;;;;;;11.80;10.00;;;;;;;21.44;95.41;100950.81;20959012;28;20086;-62
2023/06/29 12:36:57;;;;;;;11.45;9.38;;;;;;;21.48;95.07;100954.03;20925287;28;20517;-62
2023/06/29 12:46:59;;;;;;;10.40;9.30;;;;;;;21.43;95.06;100949.09;20963401;28;20501;-62
2023/06/29 12:57:01;;;;;;;11.98;9.95;;;;;;;21.40;95.60;100951.25;20908352;28;20147;-61
2023/06/29 13:07:04;;;;;;;12.10;10.05;;;;;;;21.37;95.37;100952.41;20917945;28;20063;-62
2023/06/29 13:17:06;;;;;;;11.43;10.18;;;;;;;21.35;95.60;100954.44;20940097;28;20053;-62
2023/06/29 13:27:08;;;;;;;12.77;10.68;;;;;;;21.35;95.60;100948.19;20975632;28;20072;-62
2023/06/29 13:37:09;;;;;;;12.50;11.05;;;;;;;21.35;95.80;100940.06;20981640;28;20048;-62
2023/06/29 13:47:19;;;;;;;12.52;10.55;;;;;;;21.28;95.60;100921.75;20979973;28;20044;-62
2023/06/29 13:57:20;;;;;;;12.23;10.73;;;;;;;21.36;96.24;100928.22;20937520;28;20097;-61
2023/06/29 14:07:25;;;;;;;11.70;10.07;;;;;;;21.38;95.84;100931.63;20979555;28;20052;-60
2023/06/29 14:17:27;;;;;;;13.90;11.68;;;;;;;21.38;95.71;100937.03;20932182;28;20134;-60
2023/06/29 14:27:29;;;;;;;13.43;11.07;;;;;;;21.36;95.72;100968.84;20949509;28;20083;-60
2023/06/29 14:37:31;;;;;;;13.32;10.95;;;;;;;21.34;96.38;100965.44;20971637;28;20049;-61
2023/06/29 14:47:33;;;;;;;11.40;9.88;;;;;;;21.35;96.67;100977.97;20948537;28;20051;-61
2023/06/29 14:57:35;;;;;;;13.23;10.43;;;;;;;21.34;96.53;100957.31;20918357;28;20056;-61
2023/06/29 15:07:37;;;;;;;15.13;9.52;;;;;;;21.34;96.87;100947.31;20933405;28;20083;-62
2023/06/29 15:17:39;;;;;;;11.70;9.85;;;;;;;21.37;97.48;100935.34;20944027;28;20752;-61
2023/06/29 15:27:41;;;;;;;12.50;9.10;;;;;;;21.41;98.40;100928.59;20940250;28;20812;-62
2023/06/29 15:37:42;;;;;;;13.95;10.20;;;;;;;21.54;99.34;100937.13;20943392;28;20071;-61
2023/06/29 15:47:45;;;;;;;12.60;10.07;;;;;;;21.58;99.85;100933.09;20925399;28;20048;-61
2023/06/29 15:57:46;;;;;;;12.98;9.80;;;;;;;21.64;100.00;100920.81;20910946;28;20122;-61
2023/06/29 16:07:48;;;;;;;11.88;9.90;;;;;;;21.67;100.00;100909.66;20920247;28;20755;-60
2023/06/29 16:17:50;;;;;;;11.38;9.05;;;;;;;21.69;100.00;100901.38;20918145;28;20048;-62
2023/06/29 16:27:52;;;;;;;11.45;9.25;;;;;;;21.66;100.00;100893.56;20936991;28;20048;-60
2023/06/29 16:37:53;;;;;;;12.60;9.32;;;;;;;21.71;100.00;100894.75;20929988;28;20072;-66
2023/06/29 16:47:56;;;;;;;13.35;9.77;;;;;;;21.69;100.00;100906.78;20931778;28;20076;-66
2023/06/29 16:57:57;;;;;;;11.10;9.15;;;;;;;21.63;100.00;100902.81;20972137;28;20044;-66
2023/06/29 17:07:59;;;;;;;11.18;8.90;;;;;;;21.57;100.00;100907.00;20983985;28;20127;-66
2023/06/29 17:18:01;;;;;;;11.57;9.63;;;;;;;21.55;100.00;100916.31;20983203;28;20041;-66
2023/06/29 17:28:03;;;;;;;11.50;9.40;;;;;;;21.52;99.76;100927.47;20982206;28;20060;-66
2023/06/29 17:38:05;;;;;;;9.95;8.02;;;;;;;21.48;99.29;100948.59;20980583;28;20455;-66
2023/06/29 17:48:08;;;;;;;9.30;6.63;;;;;;;21.46;98.84;100964.16;20982549;28;20601;-66
2023/06/29 17:58:10;;;;;;;7.25;5.88;;;;;;;21.43;97.63;100973.47;21023300;28;20044;-66
2023/06/29 18:08:12;;;;;;;6.57;5.07;;;;;;;21.42;96.73;100988.00;21081599;28;20055;-66
2023/06/29 18:18:14;;;;;;;4.82;4.25;;;;;;;21.40;95.93;100983.75;21034496;28;20045;-66
2023/06/29 18:28:15;;;;;;;4.90;3.95;;;;;;;21.38;94.87;100997.44;20995013;28;20410;-66
2023/06/29 18:38:17;;;;;;;4.05;3.47;;;;;;;21.37;94.22;100997.63;20994430;28;20516;-66
2023/06/29 18:48:19;;;;;;;3.90;2.90;;;;;;;21.33;93.77;101005.19;20993132;28;20075;-66
2023/06/29 18:58:21;;;;;;;3.40;2.58;;;;;;;21.30;93.49;101010.94;21028975;28;20055;-66
2023/06/29 19:08:23;;;;;;;4.15;2.70;;;;;;;21.26;93.13;101010.41;21074635;28;20498;-66
2023/06/29 19:18:26;;;;;;;3.72;2.85;;;;;;;21.25;92.72;101027.66;21074811;28;20052;-66
2023/06/29 19:28:27;;;;;;;3.42;2.13;;;;;;;21.24;92.47;101028.66;21073421;28;20139;-66
2023/06/29 19:38:29;;;;;;;2.45;2.15;;;;;;;21.25;92.14;101041.19;21073538;28;20040;-66
2023/06/29 19:48:31;;;;;;;2.70;1.90;;;;;;;21.24;91.70;101055.75;21072079;28;20459;-66
2023/06/29 19:58:32;;;;;;;1.98;1.70;;;;;;;21.24;91.66;101061.16;21056718;28;20087;-66
2023/06/29 20:08:34;;;;;;;2.10;1.83;;;;;;;21.23;91.02;101062.16;21071003;28;20127;-66
2023/06/29 20:18:35;;;;;;;1.38;1.27;;;;;;;21.22;90.66;101087.53;21070018;28;20127;-66
2023/06/29 20:28:37;;;;;;;2.22;1.67;;;;;;;21.21;90.43;101093.09;21069282;28;20135;-66
2023/06/29 20:38:39;;;;;;;2.30;1.63;;;;;;;21.19;90.32;101084.28;21041492;28;20106;-66
2023/06/29 20:48:44;;;;;;;1.42;1.25;;;;;;;21.18;90.10;101083.41;20961447;28;20146;-66
2023/06/29 20:58:45;;;;;;;2.60;1.40;;;;;;;21.16;89.83;101080.00;21047709;28;20066;-66
2023/06/29 21:08:47;;;;;;;1.23;1.10;;;;;;;21.15;89.59;101084.59;21067519;28;20451;-66
2023/06/29 21:18:50;;;;;;;1.33;1.00;;;;;;;21.14;89.27;101093.72;21066801;28;20040;-66
2023/06/29 21:28:53;;;;;;;1.17;0.90;;;;;;;21.12;89.21;101087.59;21071354;28;20048;-66
2023/06/29 21:38:55;;;;;;;1.20;1.00;;;;;;;21.11;89.08;101082.31;21083171;28;20083;-66
2023/06/29 21:48:57;;;;;;;1.23;1.13;;;;;;;21.10;88.89;101086.03;21034658;28;20605;-66
2023/06/29 21:59:01;;;;;;;1.10;1.00;;;;;;;21.09;88.76;101087.03;21000465;28;20052;-66
2023/06/29 22:09:03;;;;;;;1.33;0.90;;;;;;;21.07;88.52;101078.22;20962779;28;20072;-66
2023/06/29 22:19:09;;;;;;;0.77;0.65;;;;;;;21.05;88.27;101072.97;20912994;28;20049;-66
2023/06/29 22:29:11;;;;;;;1.05;0.85;;;;;;;21.03;88.05;101066.00;20913282;28;20591;-66
2023/06/29 22:39:13;;;;;;;1.25;0.73;;;;;;;21.01;87.87;101067.00;20910548;28;20071;-66
2023/06/29 22:49:15;;;;;;;0.90;0.80;;;;;;;21.00;87.53;101072.59;20953728;28;20040;-66
2023/06/29 22:59:16;;;;;;;1.75;0.70;;;;;;;20.79;87.34;101037.69;21020391;28;20045;-66
2023/06/29 23:09:18;;;;;;;1.30;0.90;;;;;;;20.98;87.12;101078.13;20909386;28;20084;-66
2023/06/29 23:19:20;;;;;;;0.80;0.70;;;;;;;20.97;86.83;101064.75;20909512;28;20049;-66
2023/06/29 23:29:22;;;;;;;1.60;1.27;;;;;;;20.95;86.65;101073.03;20907848;28;20506;-66
2023/06/29 23:39:24;;;;;;;0.90;0.70;;;;;;;20.94;86.34;101084.00;20907549;28;20537;-66
2023/06/29 23:49:25;;;;;;;1.63;0.93;;;;;;;20.93;86.10;101075.03;20941564;28;20043;-66
2023/06/29 23:59:27;;;;;;;1.70;0.85;;;;;;;20.91;85.94;101079.75;21072096;28;20120;-66
